Home > Products > Valid Products > TAF

000
FTUS42 KMHX 191100
TAFEWN
TAF
KEWN 191137Z 1912/2012 36005KT P6SM SCT250
      TEMPO 1912/1914 BKN080
     FM200900 03004KT P6SM BKN080=



000
FTUS42 KMHX 190800 AAA
TAFEWN
TAF AMD
KEWN 190800Z 1908/2006 00000KT P6SM BKN080
      TEMPO 1908/1909 3SM BR
     FM191200 01005KT P6SM SCT250=



000
FTUS42 KMHX 190500
TAFEWN
TAF
KEWN 190529Z 1906/2006 00000KT P6SM BKN080
     FM191200 01005KT P6SM SCT250=



000
FTUS42 KMHX 182300
TAFEWN
TAF
KEWN 182323Z 1900/1924 00000KT P6SM BKN080
     FM191400 01004KT P6SM SKC=



000
FTUS42 KMHX 181700
TAFEWN
TAF
KEWN 181721Z 1818/1918 04006KT P6SM SKC
     FM182300 04004KT P6SM BKN100=



000
FTUS42 KMHX 181100
TAFEWN
TAF
KEWN 181129Z 1812/1912 01007KT P6SM SCT150
     FM190000 00000KT P6SM BKN100=



000
FTUS42 KMHX 180500 RRA
TAFEWN
TAF
KEWN 180551Z 1806/1906 23004KT P6SM BKN250
     FM180900 34007KT P6SM SCT250
     FM181600 34004KT P6SM SCT150=



000
FTUS42 KMHX 172300
TAFEWN
TAF
KEWN 172320Z 1800/1824 00000KT P6SM SKC
     FM180700 34007KT P6SM SKC
     FM181600 34004KT P6SM SCT150=



000
FTUS42 KMHX 171700
TAFEWN
TAF
KEWN 171721Z 1718/1818 34010KT P6SM SKC
     FM180000 VRB03KT P6SM SCT250=



000
FTUS42 KMHX 171100
TAFEWN
TAF
KEWN 171135Z 1712/1812 28005KT P6SM SKC
     FM180000 VRB03KT P6SM SCT250=



000
FTUS42 KMHX 170500 RRA
TAFEWN
TAF
KEWN 170546Z 1706/1806 30008KT P6SM SKC
     FM180000 VRB03KT P6SM SCT250=



000
FTUS42 KMHX 162300 RRA
TAFEWN
TAF
KEWN 162341Z 1700/1724 22004KT P6SM VCSH BKN030 OVC060
      WS020/22040KT
     FM170300 26008KT P6SM BKN050
     FM170600 31007KT P6SM SKC=



000
FTUS42 KMHX 162100 AAA
TAFEWN
TAF AMD
KEWN 162141Z 1622/1718 22013G18KT 3SM SHRA BR BKN015 OVC025
     FM162330 22006KT P6SM VCSH SCT015 OVC025
     FM170300 28009KT P6SM BKN100
     FM170600 31007KT P6SM SKC=



000
FTUS42 KMHX 161700
TAFEWN
TAF
KEWN 161721Z 1618/1718 22013G18KT P6SM SKC
     FM161900 22008KT P6SM VCSH BKN030
     FM170300 28009KT P6SM BKN100
     FM170600 31007KT P6SM SKC=



    US Dept of Commerce
    National Oceanic and Atmospheric Administration
    National Weather Service
    1325 East West Highway
    Silver Spring, MD 20910
    Page Author: NWS Internet Services Team
Disclaimer
Information Quality
Credits
Glossary
Privacy Policy
Freedom of Information Act (FOIA)
About Us
Career Opportunities